Fort Worth Meacham International Airport
KFTW : now visible

Airfield :











YOU CAN JOIN US ON...

 
LOGIN :

Register | Disclaimer

   EN    FR    IT 

 









Legend :    VFR   Marginal VFR   IFR   Intensive IFR   Very Intensive IFR
Visi :
Ceiling :
>= 8 km
>= 3000ft
5 to 8 km
1000 to 3000 ft
1500m to 5 km
500 to 1000 ft
800 to 1500m
200 to 500 ft
< 800m
< 200 ft
Symbols :   Thunderstorms  Fog  Heavy snow  Heavy precipitations  Wind > 20 kt






- Airport Elevation : 710 ft
- IATA code : FTW


KFTW - Fort Worth Meacham International

CURRENT METAR :
  • 181353Z 18009KT 7SM OVC009 22/20 A2989 RMK AO2 SLP115 T02170200

EXPIRED METARs :
  • 181253Z 17008KT 6SM BR OVC008 21/20 A2987 RMK AO2 SLP109 T02060200
  • 181153Z 16009KT 7SM BKN007 OVC011 21/19 A2986 RMK AO2 SLP102 T02060194 10228 20200 53001
  • 181114Z 16007KT 7SM BKN009 BKN014 20/19 A2985 RMK AO2 T02000194
  • 181053Z 15009KT 8SM BKN012 BKN017 20/19 A2985 RMK AO2 SLP100 T02000194
  • 180953Z 15008KT 8SM FEW023 20/19 A2985 RMK AO2 SLP100 T02000194
  • 180944Z 15007KT 8SM FEW023 21/19 A2985 RMK AO2 T02060194

TAF KFTW
Valid from the 18 at 13:00 until the 19 at 12:00 UTC


181252Z 1813/1912 16011KT P6SM BKN015
TEMPO 1813/1816 BKN007
FM181700 18010KT P6SM BKN035
FM182100 29010KT P6SM VCTS BKN050CB
FM190100 01016KT P6SM FEW040 SCT250
KZFW FIR / North America



MET'MAP, your aeronautical weather chart ! - Copyright ORBIFLY December 2007 - Disclaimer

ORBIFLY MET'MAP TEAM :

Programming & Development : Alexandra Zaïnal
Original concept : Baudouin d'Aumeries
Technical & hardware support : Manuel Goepfert
Assistance : Marc-Olivier Méhu




SOURCES & CREDITS :

   NOAA       Earth
Advisory